createdAt,value
2023-03-30T00:00:15.868Z,0.5292
2023-03-30T00:01:18.428Z,0.5258
2023-03-30T00:02:20.974Z,0.5385
2023-03-30T00:03:23.597Z,0.5433
2023-03-30T00:04:26.228Z,0.5510
2023-03-30T00:05:28.749Z,0.5681
2023-03-30T00:06:31.318Z,0.5769
2023-03-30T00:07:33.899Z,0.5701
2023-03-30T00:08:36.625Z,0.5726
2023-03-30T00:09:39.382Z,0.5792
2023-03-30T00:10:41.604Z,0.5621
2023-03-30T00:11:44.194Z,0.5456
2023-03-30T00:12:46.733Z,0.5360
2023-03-30T00:13:49.325Z,0.5283
2023-03-30T00:14:51.895Z,0.5415
2023-03-30T00:15:54.689Z,0.5535
2023-03-30T00:16:57.126Z,0.5608
2023-03-30T00:17:59.614Z,0.5615
2023-03-30T00:19:02.217Z,0.5554
2023-03-30T00:20:04.801Z,0.5510
2023-03-30T00:21:07.487Z,0.5447
2023-03-30T00:22:09.974Z,0.5453
2023-03-30T00:23:12.507Z,0.5391
2023-03-30T00:24:15.250Z,0.5280
2023-03-30T00:25:17.634Z,0.5228
2023-03-30T00:26:20.180Z,0.5208
2023-03-30T00:27:22.861Z,0.5244
2023-03-30T00:28:25.378Z,0.5433
2023-03-30T00:29:27.743Z,0.5449
2023-03-30T00:30:30.534Z,0.5434
2023-03-30T00:31:33.060Z,0.5440
2023-03-30T00:32:35.614Z,0.5506
2023-03-30T00:33:45.525Z,0.5504
2023-03-30T00:34:41.831Z,0.5590
2023-03-30T00:35:43.494Z,0.5682
2023-03-30T00:36:46.169Z,0.5615
2023-03-30T00:37:48.622Z,0.5505
2023-03-30T00:38:51.158Z,0.5367
2023-03-30T00:39:53.729Z,0.5594
2023-03-30T00:40:56.366Z,0.5104
2023-03-30T00:41:58.985Z,0.5378
2023-03-30T00:43:01.579Z,0.5387
2023-03-30T00:44:04.142Z,0.5463
2023-03-30T00:45:06.678Z,0.5470
2023-03-30T00:46:09.219Z,0.5376
2023-03-30T00:47:11.841Z,0.5288
2023-03-30T00:48:14.430Z,0.5500
2023-03-30T00:49:16.984Z,0.5446
2023-03-30T00:50:19.571Z,0.5306
2023-03-30T00:51:22.132Z,0.5435
2023-03-30T00:52:24.881Z,0.5503
2023-03-30T00:53:27.251Z,0.5600
2023-03-30T00:54:29.849Z,0.5386
2023-03-30T00:55:32.339Z,0.5298
2023-03-30T00:56:34.951Z,0.5386
2023-03-30T00:57:37.408Z,0.5465
2023-03-30T00:58:40.197Z,0.5547
2023-03-30T00:59:42.711Z,0.5511
2023-03-30T01:00:45.241Z,0.5465
2023-03-30T01:01:47.732Z,0.5554
2023-03-30T01:02:50.571Z,0.5719
2023-03-30T01:03:53.134Z,0.5666
2023-03-30T01:04:55.609Z,0.5707
2023-03-30T01:05:58.200Z,0.5735
2023-03-30T01:07:00.788Z,0.5627
2023-03-30T01:08:03.326Z,0.5412
2023-03-30T01:09:05.936Z,0.5391
2023-03-30T01:10:08.484Z,0.5538
2023-03-30T01:11:11.227Z,0.5552
2023-03-30T01:12:13.639Z,0.5591
2023-03-30T01:13:16.221Z,0.5513
2023-03-30T01:14:18.812Z,0.5497
2023-03-30T01:15:21.382Z,0.5534
2023-03-30T01:16:23.838Z,0.5684
2023-03-30T01:17:26.814Z,0.5686
2023-03-30T01:18:29.006Z,0.5675
2023-03-30T01:19:31.713Z,0.5781
2023-03-30T01:20:34.243Z,0.5890
2023-03-30T01:21:36.729Z,0.5969
2023-03-30T01:22:39.352Z,0.5917
2023-03-30T01:23:41.953Z,0.5999
2023-03-30T01:24:44.573Z,0.6046
2023-03-30T01:25:48.053Z,0.5986
2023-03-30T01:26:49.692Z,0.5957
2023-03-30T01:27:52.261Z,0.5862
2023-03-30T01:28:54.841Z,0.5953
2023-03-30T01:29:57.464Z,0.5813
2023-03-30T01:31:00.017Z,0.5725
2023-03-30T01:32:02.548Z,0.5622
2023-03-30T01:33:05.058Z,0.5505
2023-03-30T01:34:07.718Z,0.5375
2023-03-30T01:35:11.117Z,0.5356
2023-03-30T01:36:12.881Z,0.5419
2023-03-30T01:37:15.450Z,0.5309
2023-03-30T01:38:17.813Z,0.5414
2023-03-30T01:39:20.454Z,0.5335
2023-03-30T01:40:23.261Z,0.5328
2023-03-30T01:41:25.528Z,0.5309
2023-03-30T01:42:28.169Z,0.5370
2023-03-30T01:43:30.736Z,0.5348
2023-03-30T01:44:33.326Z,0.5403
2023-03-30T01:45:36.139Z,0.5324
2023-03-30T01:46:38.609Z,0.5446
2023-03-30T01:47:41.228Z,0.5527
2023-03-30T01:48:43.783Z,0.5481
2023-03-30T01:49:46.391Z,0.5495
2023-03-30T01:50:48.959Z,0.5532
2023-03-30T01:51:51.508Z,0.5602
2023-03-30T01:52:54.073Z,0.5456
2023-03-30T01:53:56.820Z,0.5383
2023-03-30T01:54:59.124Z,0.5434
2023-03-30T01:56:01.825Z,0.5320
2023-03-30T01:57:04.436Z,0.5291
2023-03-30T01:58:06.676Z,0.5433
2023-03-30T01:59:09.549Z,0.5551
2023-03-30T02:00:11.908Z,0.5766
2023-03-30T02:01:14.738Z,0.5794
2023-03-30T02:02:17.250Z,0.5733
2023-03-30T02:03:20.060Z,0.5696
2023-03-30T02:04:22.556Z,0.5573
2023-03-30T02:05:24.963Z,0.5543
2023-03-30T02:06:27.607Z,0.5549
2023-03-30T02:07:30.141Z,0.5577
2023-03-30T02:08:32.727Z,0.5652
2023-03-30T02:09:35.310Z,0.5601
2023-03-30T02:10:37.858Z,0.5531
2023-03-30T02:11:40.408Z,0.5575
2023-03-30T02:12:43.011Z,0.5664
2023-03-30T02:13:46.080Z,0.5742
2023-03-30T02:14:48.168Z,0.5619
2023-03-30T02:15:50.782Z,0.5618
2023-03-30T02:16:53.386Z,0.5653
2023-03-30T02:17:55.962Z,0.5556
2023-03-30T02:18:58.485Z,0.5535
2023-03-30T02:20:01.088Z,0.5515
2023-03-30T02:21:03.839Z,0.5526
2023-03-30T02:22:06.489Z,0.5466
2023-03-30T02:23:08.791Z,0.5509
2023-03-30T02:24:11.381Z,0.5413
2023-03-30T02:25:14.019Z,0.5390
2023-03-30T02:26:16.555Z,0.5409
2023-03-30T02:27:19.157Z,0.5340
2023-03-30T02:28:21.696Z,0.5258
2023-03-30T02:29:24.461Z,0.5258
2023-03-30T02:30:26.833Z,0.5385
2023-03-30T02:31:29.475Z,0.5475
2023-03-30T02:32:31.851Z,0.5544
2023-03-30T02:33:34.602Z,0.5565
2023-03-30T02:34:37.188Z,0.5527
2023-03-30T02:35:39.991Z,0.5451
2023-03-30T02:36:42.268Z,0.5543
2023-03-30T02:37:44.871Z,0.5144
2023-03-30T02:38:47.485Z,0.5728
2023-03-30T02:39:50.074Z,0.5812
2023-03-30T02:40:52.643Z,0.5957
2023-03-30T02:41:55.234Z,0.5963
2023-03-30T02:42:57.666Z,0.5774
2023-03-30T02:44:00.373Z,0.5741
2023-03-30T02:45:02.982Z,0.5709
2023-03-30T02:46:05.661Z,0.5459
2023-03-30T02:47:08.024Z,0.5385
2023-03-30T02:48:10.788Z,0.5276
2023-03-30T02:49:13.277Z,0.5175
2023-03-30T02:50:15.812Z,0.5158
2023-03-30T02:51:18.398Z,0.5200
2023-03-30T02:52:20.985Z,0.5185
2023-03-30T02:53:23.600Z,0.5249
2023-03-30T02:54:26.132Z,0.5271
2023-03-30T02:55:28.785Z,0.5358
2023-03-30T02:56:31.235Z,0.5427
2023-03-30T02:57:33.853Z,0.5519
2023-03-30T02:58:36.483Z,0.5533
2023-03-30T02:59:39.025Z,0.5512
2023-03-30T03:00:41.764Z,0.5516
2023-03-30T03:01:44.247Z,0.5601
2023-03-30T03:02:46.857Z,0.5468
2023-03-30T03:03:49.498Z,0.5427
2023-03-30T03:04:51.955Z,0.5316
2023-03-30T03:05:54.516Z,0.5251
2023-03-30T03:06:57.074Z,0.5220
2023-03-30T03:07:59.379Z,0.5311
2023-03-30T03:09:02.256Z,0.5396
2023-03-30T03:10:04.725Z,0.5584
2023-03-30T03:11:07.803Z,0.5662
2023-03-30T03:12:09.945Z,0.5698
2023-03-30T03:13:12.516Z,0.5770
2023-03-30T03:14:15.137Z,0.5683
2023-03-30T03:15:17.595Z,0.5757
2023-03-30T03:16:20.542Z,0.5696
2023-03-30T03:17:22.883Z,0.5524
2023-03-30T03:18:25.382Z,0.5440
2023-03-30T03:19:28.014Z,0.5551
2023-03-30T03:20:30.645Z,0.5625
2023-03-30T03:21:33.046Z,0.5834
2023-03-30T03:22:35.629Z,0.5952
2023-03-30T03:23:38.265Z,0.5802
2023-03-30T03:24:40.894Z,0.5603
2023-03-30T03:25:43.447Z,0.5496
2023-03-30T03:26:46.605Z,0.5485
2023-03-30T03:27:48.505Z,0.5474
2023-03-30T03:28:51.167Z,0.5405
2023-03-30T03:29:53.756Z,0.5323
2023-03-30T03:30:56.361Z,0.5189
2023-03-30T03:31:58.901Z,0.5152
2023-03-30T03:33:01.391Z,0.5178
2023-03-30T03:34:03.839Z,0.5135
2023-03-30T03:35:06.691Z,0.5206
2023-03-30T03:36:09.062Z,0.5253
2023-03-30T03:37:11.789Z,0.5242
2023-03-30T03:38:14.148Z,0.5283
2023-03-30T03:39:16.878Z,0.5292
2023-03-30T03:40:19.748Z,0.5297
2023-03-30T03:41:22.102Z,0.5159
2023-03-30T03:42:24.691Z,0.5201
2023-03-30T03:43:27.256Z,0.5273
2023-03-30T03:44:29.810Z,0.5357
2023-03-30T03:45:32.456Z,0.5427
2023-03-30T03:46:35.023Z,0.5451
2023-03-30T03:47:37.585Z,0.5524
2023-03-30T03:48:40.112Z,0.5532
2023-03-30T03:49:42.739Z,0.5496
2023-03-30T03:50:45.332Z,0.5328
2023-03-30T03:51:47.869Z,0.5302
2023-03-30T03:52:50.438Z,0.5471
2023-03-30T03:53:53.025Z,0.5462
2023-03-30T03:54:55.561Z,0.5322
2023-03-30T03:55:58.215Z,0.5389
2023-03-30T03:57:00.791Z,0.4991
2023-03-30T03:58:03.561Z,0.5431
2023-03-30T03:59:05.826Z,0.5496
2023-03-30T04:00:08.496Z,0.5492
2023-03-30T04:01:11.166Z,0.5623
2023-03-30T04:02:13.698Z,0.5663
2023-03-30T04:03:16.307Z,0.5663
2023-03-30T04:04:18.857Z,0.5718
2023-03-30T04:05:21.400Z,0.5748
2023-03-30T04:06:24.188Z,0.5738
2023-03-30T04:07:26.536Z,0.5724
2023-03-30T04:08:29.107Z,0.5768
2023-03-30T04:09:31.464Z,0.5865
2023-03-30T04:10:34.512Z,0.5957
2023-03-30T04:11:36.832Z,0.6021
2023-03-30T04:12:39.443Z,0.5799
2023-03-30T04:13:41.944Z,0.5916
2023-03-30T04:14:44.583Z,0.5957
2023-03-30T04:15:47.174Z,0.5908
2023-03-30T04:16:49.790Z,0.5974
2023-03-30T04:17:52.325Z,0.6018
2023-03-30T04:18:55.103Z,0.6039
2023-03-30T04:19:57.472Z,0.6038
2023-03-30T04:21:00.090Z,0.5996
2023-03-30T04:22:02.677Z,0.6042
2023-03-30T04:23:05.219Z,0.6105
2023-03-30T04:24:07.787Z,0.6025
2023-03-30T04:25:10.342Z,0.6066
2023-03-30T04:26:13.133Z,0.5992
2023-03-30T04:27:15.551Z,0.6120
2023-03-30T04:28:18.017Z,0.6144
2023-03-30T04:29:20.703Z,0.6106
2023-03-30T04:30:23.296Z,0.6127
2023-03-30T04:31:25.855Z,0.5554
2023-03-30T04:32:28.471Z,0.5882
2023-03-30T04:33:31.006Z,0.5824
2023-03-30T04:34:33.581Z,0.5997
2023-03-30T04:35:36.183Z,0.5918
2023-03-30T04:36:38.626Z,0.5617
2023-03-30T04:37:41.530Z,0.5576
2023-03-30T04:38:43.886Z,0.5429
2023-03-30T04:39:46.448Z,0.5333
2023-03-30T04:40:48.943Z,0.5000
2023-03-30T04:41:51.605Z,0.5573
2023-03-30T04:42:54.226Z,0.5619
2023-03-30T04:43:56.738Z,0.5682
2023-03-30T04:44:59.327Z,0.5711
2023-03-30T04:46:01.946Z,0.5753
2023-03-30T04:47:04.501Z,0.5737
2023-03-30T04:48:07.156Z,0.5848
2023-03-30T04:49:09.740Z,0.5881
2023-03-30T04:50:12.486Z,0.5980
2023-03-30T04:51:14.874Z,0.5890
2023-03-30T04:52:17.435Z,0.5796
2023-03-30T04:53:20.071Z,0.5843
2023-03-30T04:54:22.589Z,0.5624
2023-03-30T04:55:25.184Z,0.5536
2023-03-30T04:56:28.565Z,0.5633
2023-03-30T04:57:30.369Z,0.5639
2023-03-30T04:58:32.945Z,0.5602
2023-03-30T04:59:35.489Z,0.5225
2023-03-30T05:00:38.078Z,0.5662
2023-03-30T05:01:40.736Z,0.5672
2023-03-30T05:02:43.387Z,0.5788
2023-03-30T05:03:45.849Z,0.5836
2023-03-30T05:04:48.381Z,0.5951
2023-03-30T05:05:51.151Z,0.6035
2023-03-30T05:06:53.531Z,0.6015
2023-03-30T05:07:56.092Z,0.5996
2023-03-30T05:08:58.732Z,0.5906
2023-03-30T05:10:01.356Z,0.5840
2023-03-30T05:11:03.988Z,0.5988
2023-03-30T05:12:06.422Z,0.6139
2023-03-30T05:13:08.993Z,0.5987
2023-03-30T05:14:11.771Z,0.5706
2023-03-30T05:15:14.155Z,0.5555
2023-03-30T05:16:16.753Z,0.5511
2023-03-30T05:17:19.303Z,0.5498
2023-03-30T05:18:22.037Z,0.5528
2023-03-30T05:19:24.473Z,0.5637
2023-03-30T05:20:27.037Z,0.5154
2023-03-30T05:21:29.589Z,0.5434
2023-03-30T05:22:32.341Z,0.5549
2023-03-30T05:23:34.748Z,0.5571
2023-03-30T05:24:37.375Z,0.5588
2023-03-30T05:25:39.914Z,0.5730
2023-03-30T05:26:42.389Z,0.5814
2023-03-30T05:27:45.050Z,0.5735
2023-03-30T05:28:47.623Z,0.5588
2023-03-30T05:29:50.259Z,0.5631
2023-03-30T05:30:52.847Z,0.5638
2023-03-30T05:31:55.350Z,0.5693
2023-03-30T05:32:58.011Z,0.5686
2023-03-30T05:34:00.309Z,0.5639
2023-03-30T05:35:03.150Z,0.5551
2023-03-30T05:36:05.706Z,0.5437
2023-03-30T05:37:08.250Z,0.5391
2023-03-30T05:38:10.827Z,0.5393
2023-03-30T05:39:13.432Z,0.5362
2023-03-30T05:40:16.035Z,0.5375
2023-03-30T05:41:18.564Z,0.5505
2023-03-30T05:42:21.052Z,0.5591
2023-03-30T05:43:23.713Z,0.5615
2023-03-30T05:44:26.312Z,0.5571
2023-03-30T05:45:28.910Z,0.5744
2023-03-30T05:46:31.298Z,0.5789
2023-03-30T05:47:34.056Z,0.5736
2023-03-30T05:48:36.591Z,0.5896
2023-03-30T05:49:39.201Z,0.5460
2023-03-30T05:50:41.819Z,0.5910
2023-03-30T05:51:44.094Z,0.5938
2023-03-30T05:52:46.839Z,0.5933
2023-03-30T05:53:49.507Z,0.5924
2023-03-30T05:54:52.068Z,0.5885
2023-03-30T05:55:54.680Z,0.5827
2023-03-30T05:56:57.279Z,0.5792
2023-03-30T05:57:59.639Z,0.5880
2023-03-30T05:59:02.144Z,0.5822
2023-03-30T06:00:04.927Z,0.5781
2023-03-30T06:01:07.476Z,0.5315
2023-03-30T06:02:10.967Z,0.5594
2023-03-30T06:03:12.755Z,0.5595
2023-03-30T06:04:15.349Z,0.5705
2023-03-30T06:05:17.828Z,0.5702
2023-03-30T06:06:20.441Z,0.5298
2023-03-30T06:07:22.964Z,0.5313
2023-03-30T06:08:25.581Z,0.5709
2023-03-30T06:09:28.140Z,0.5711
2023-03-30T06:10:30.891Z,0.5699
2023-03-30T06:11:33.324Z,0.5695
2023-03-30T06:12:35.648Z,0.5672
2023-03-30T06:13:38.450Z,0.5755
2023-03-30T06:14:41.041Z,0.5639
2023-03-30T06:15:43.583Z,0.5717
2023-03-30T06:16:46.685Z,0.5744
2023-03-30T06:17:48.829Z,0.5736
2023-03-30T06:18:51.364Z,0.5801
2023-03-30T06:19:53.905Z,0.5740
2023-03-30T06:20:56.459Z,0.5954
2023-03-30T06:22:00.325Z,0.5879
2023-03-30T06:23:01.676Z,0.5935
2023-03-30T06:24:04.139Z,0.6074
2023-03-30T06:25:06.799Z,0.6062
2023-03-30T06:26:09.383Z,0.5931
2023-03-30T06:27:11.978Z,0.5754
2023-03-30T06:28:14.450Z,0.5774
2023-03-30T06:29:17.110Z,0.5778
2023-03-30T06:30:19.676Z,0.5656
2023-03-30T06:31:22.488Z,0.5652
2023-03-30T06:32:24.894Z,0.5785
2023-03-30T06:33:27.335Z,0.5807
2023-03-30T06:34:30.008Z,0.5728
2023-03-30T06:35:32.603Z,0.5743
2023-03-30T06:36:44.387Z,0.5711
2023-03-30T06:37:38.602Z,0.5799
2023-03-30T06:38:40.305Z,0.5730
2023-03-30T06:39:42.873Z,0.5836
2023-03-30T06:40:45.214Z,0.5816
2023-03-30T06:41:48.037Z,0.5915
2023-03-30T06:42:50.680Z,0.5927
2023-03-30T06:43:53.301Z,0.5873
2023-03-30T06:44:55.985Z,0.5817
2023-03-30T06:45:58.197Z,0.5867
2023-03-30T06:47:00.888Z,0.5827
2023-03-30T06:48:03.583Z,0.5846
2023-03-30T06:49:06.099Z,0.6010
2023-03-30T06:50:08.870Z,0.6090
2023-03-30T06:51:11.284Z,0.6005
2023-03-30T06:52:13.840Z,0.6074
2023-03-30T06:53:16.479Z,0.6135
2023-03-30T06:54:19.038Z,0.6098
2023-03-30T06:55:21.831Z,0.6060
2023-03-30T06:56:24.145Z,0.6154
2023-03-30T06:57:26.827Z,0.6165
2023-03-30T06:58:29.356Z,0.6229
2023-03-30T06:59:34.294Z,0.6052
2023-03-30T07:00:34.257Z,0.5987
2023-03-30T07:01:37.080Z,0.6007
2023-03-30T07:02:39.875Z,0.6015
2023-03-30T07:03:42.272Z,0.5973
2023-03-30T07:04:44.747Z,0.6027
2023-03-30T07:05:47.377Z,0.6062
2023-03-30T07:06:50.133Z,0.6009
2023-03-30T07:07:52.468Z,0.5920
2023-03-30T07:08:55.169Z,0.5979
2023-03-30T07:09:57.711Z,0.5951
2023-03-30T07:11:00.301Z,0.5865
2023-03-30T07:12:03.076Z,0.5992
2023-03-30T07:13:05.475Z,0.5930
2023-03-30T07:14:08.087Z,0.5962
2023-03-30T07:15:10.544Z,0.5944
2023-03-30T07:16:13.221Z,0.5769
2023-03-30T07:17:15.562Z,0.5622
2023-03-30T07:18:18.458Z,0.5605
2023-03-30T07:19:20.819Z,0.5770
2023-03-30T07:20:23.368Z,0.5790
2023-03-30T07:21:25.858Z,0.5793
2023-03-30T07:22:28.418Z,0.5781
2023-03-30T07:23:31.226Z,0.5700
2023-03-30T07:24:33.842Z,0.5773
2023-03-30T07:25:36.177Z,0.5708
2023-03-30T07:26:38.982Z,0.5598
2023-03-30T07:27:41.392Z,0.5600
2023-03-30T07:28:44.293Z,0.5727
2023-03-30T07:29:46.753Z,0.5754
2023-03-30T07:30:49.243Z,0.5679
2023-03-30T07:31:51.846Z,0.5728
2023-03-30T07:32:56.979Z,0.5611
2023-03-30T07:33:57.019Z,0.5509
2023-03-30T07:34:59.621Z,0.5702
2023-03-30T07:36:02.191Z,0.5728
2023-03-30T07:37:04.747Z,0.5713
2023-03-30T07:38:07.349Z,0.5649
2023-03-30T07:39:09.689Z,0.5712
2023-03-30T07:40:12.434Z,0.5575
2023-03-30T07:41:15.046Z,0.5641
2023-03-30T07:42:17.647Z,0.5688
2023-03-30T07:43:20.233Z,0.5631
2023-03-30T07:44:22.734Z,0.5596
2023-03-30T07:45:25.255Z,0.5637
2023-03-30T07:46:28.185Z,0.5680
2023-03-30T07:47:30.839Z,0.5750
2023-03-30T07:48:33.101Z,0.5795
2023-03-30T07:49:35.679Z,0.5782
2023-03-30T07:50:38.345Z,0.5809
2023-03-30T07:51:40.832Z,0.5685
2023-03-30T07:52:43.416Z,0.5692
2023-03-30T07:53:46.010Z,0.5572
2023-03-30T07:54:48.586Z,0.5580
2023-03-30T07:55:51.593Z,0.5234
2023-03-30T07:56:53.612Z,0.5773
2023-03-30T07:57:56.315Z,0.5738
2023-03-30T07:59:00.283Z,0.5673
2023-03-30T08:00:01.589Z,0.5760
2023-03-30T08:01:04.369Z,0.5936
2023-03-30T08:02:06.849Z,0.5905
2023-03-30T08:03:09.458Z,0.5699
2023-03-30T08:04:12.230Z,0.5571
2023-03-30T08:05:14.685Z,0.5614
2023-03-30T08:06:17.004Z,0.5715
2023-03-30T08:07:19.625Z,0.5699
2023-03-30T08:08:22.100Z,0.5652
2023-03-30T08:09:24.666Z,0.5724
2023-03-30T08:10:27.251Z,0.5649
2023-03-30T08:11:29.879Z,0.5582
2023-03-30T08:12:32.403Z,0.5670
2023-03-30T08:13:34.962Z,0.5795
2023-03-30T08:14:37.741Z,0.5948
2023-03-30T08:15:39.990Z,0.5969
2023-03-30T08:16:42.775Z,0.5778
2023-03-30T08:17:45.292Z,0.5773
2023-03-30T08:18:47.874Z,0.5700
2023-03-30T08:19:50.438Z,0.5849
2023-03-30T08:20:53.024Z,0.5905
2023-03-30T08:21:55.667Z,0.5883
2023-03-30T08:22:58.177Z,0.5807
2023-03-30T08:24:00.757Z,0.5826
2023-03-30T08:25:03.343Z,0.5781
2023-03-30T08:26:05.916Z,0.5806
2023-03-30T08:27:08.561Z,0.5788
2023-03-30T08:28:11.292Z,0.5744
2023-03-30T08:29:13.583Z,0.5692
2023-03-30T08:30:16.210Z,0.5627
2023-03-30T08:31:18.756Z,0.5576
2023-03-30T08:32:21.461Z,0.5601
2023-03-30T08:33:24.007Z,0.5294
2023-03-30T08:34:26.533Z,0.5776
2023-03-30T08:35:29.142Z,0.5775
2023-03-30T08:36:31.852Z,0.5894
2023-03-30T08:37:34.280Z,0.5936
2023-03-30T08:38:36.816Z,0.6055
2023-03-30T08:39:39.396Z,0.6094
2023-03-30T08:40:41.986Z,0.6032
2023-03-30T08:41:44.571Z,0.6003
2023-03-30T08:42:47.497Z,0.6070
2023-03-30T08:43:49.610Z,0.5939
2023-03-30T08:44:52.182Z,0.5889
2023-03-30T08:45:54.889Z,0.5845
2023-03-30T08:46:57.612Z,0.5960
2023-03-30T08:47:59.979Z,0.6008
2023-03-30T08:49:02.621Z,0.5914
2023-03-30T08:50:05.193Z,0.5958
2023-03-30T08:51:07.831Z,0.5921
2023-03-30T08:52:10.266Z,0.5961
2023-03-30T08:53:12.959Z,0.5960
2023-03-30T08:54:15.551Z,0.6051
2023-03-30T08:55:17.948Z,0.6081
2023-03-30T08:56:20.908Z,0.6135
2023-03-30T08:57:23.382Z,0.6081
2023-03-30T08:58:26.023Z,0.6127
2023-03-30T08:59:28.439Z,0.6128
2023-03-30T09:00:30.880Z,0.5539
2023-03-30T09:01:33.530Z,0.6029
2023-03-30T09:02:37.965Z,0.6046
2023-03-30T09:03:38.581Z,0.5926
2023-03-30T09:04:41.158Z,0.5988
2023-03-30T09:05:43.676Z,0.5935
2023-03-30T09:06:46.398Z,0.5782
2023-03-30T09:07:49.091Z,0.5776
2023-03-30T09:08:51.492Z,0.5666
2023-03-30T09:09:54.074Z,0.5570
2023-03-30T09:10:56.585Z,0.6003
2023-03-30T09:11:59.167Z,0.7103
2023-03-30T09:13:01.744Z,0.7364
2023-03-30T09:14:04.459Z,0.8075
2023-03-30T09:15:06.904Z,0.8261
2023-03-30T09:16:09.534Z,0.8008
2023-03-30T09:17:12.139Z,0.7928
2023-03-30T09:18:14.727Z,0.7588
2023-03-30T09:19:17.236Z,0.7218
2023-03-30T09:20:19.802Z,0.7076
2023-03-30T09:21:22.373Z,0.7008
2023-03-30T09:22:24.963Z,0.7107
2023-03-30T09:23:27.578Z,0.7276
2023-03-30T09:24:30.165Z,0.7080
2023-03-30T09:25:32.724Z,0.7018
2023-03-30T09:26:35.510Z,0.7066
2023-03-30T09:27:38.093Z,0.7225
2023-03-30T09:28:40.510Z,0.7525
2023-03-30T09:29:43.038Z,0.7426
2023-03-30T09:30:45.756Z,0.7316
2023-03-30T09:31:48.189Z,0.6980
2023-03-30T09:32:50.813Z,0.7056
2023-03-30T09:33:53.351Z,0.7096
2023-03-30T09:34:55.953Z,0.7581
2023-03-30T09:35:58.563Z,0.7846
2023-03-30T09:37:01.081Z,0.7398
2023-03-30T09:38:03.684Z,0.7366
2023-03-30T09:39:06.255Z,0.7291
2023-03-30T09:40:09.109Z,0.7102
2023-03-30T09:41:11.427Z,0.7209
2023-03-30T09:42:13.980Z,0.6991
2023-03-30T09:43:16.563Z,0.7119
2023-03-30T09:44:19.153Z,0.7326
2023-03-30T09:45:21.773Z,0.7280
2023-03-30T09:46:24.364Z,0.7337
2023-03-30T09:47:26.939Z,0.7348
